Time;durP1;ratioP1;P1;durP2;ratioP2;P2;SDS_P1;SDS_P2;PMS_P1;PMS_P2;Temp;Humidity;BMP_temperature;BMP_pressure;BME280_temperature;BME280_humidity;BME280_pressure;Samples;Min_cycle;Max_cycle;Signal;HPM_P1;HPM_P2
2023/10/17 00:01:48;;;;;;;7.85;6.15;;;;;;;;;;5095732;28;20024;-75
2023/10/17 00:06:50;;;;;;;8.80;5.47;;;;;;;;;;5100478;28;20035;-75
2023/10/17 00:09:21;;;;;;;10.48;5.55;;;;;;;;;;5116192;28;20088;-75
2023/10/17 00:14:25;;;;;;;8.65;5.80;;;;;;;;;;5117970;28;20089;-75
2023/10/17 00:16:57;;;;;;;8.40;6.05;;;;;;;;;;5117974;28;20084;-75
2023/10/17 00:19:26;;;;;;;8.13;5.60;;;;;;;;;;5117995;28;20102;-75
2023/10/17 00:21:52;;;;;;;10.90;5.50;;;;;;;;;;5099822;28;20111;-75
2023/10/17 00:24:19;;;;;;;8.07;4.75;;;;;;;;;;5117680;28;20050;-75
2023/10/17 00:26:44;;;;;;;7.20;5.10;;;;;;;;;;5099315;28;20119;-75
2023/10/17 00:29:10;;;;;;;7.15;4.78;;;;;;;;;;5117693;28;20059;-75
2023/10/17 00:31:37;;;;;;;8.05;4.82;;;;;;;;;;5117655;28;20066;-75
2023/10/17 00:34:13;;;;;;;8.10;4.97;;;;;;;;;;5117467;28;20031;-75
2023/10/17 00:36:48;;;;;;;8.25;4.97;;;;;;;;;;5099178;28;20111;-75
2023/10/17 00:39:17;;;;;;;5.90;4.43;;;;;;;;;;5094675;28;20122;-74
2023/10/17 00:41:51;;;;;;;8.10;4.93;;;;;;;;;;5117338;28;20028;-74
2023/10/17 00:44:24;;;;;;;8.90;4.97;;;;;;;;;;5117865;28;20030;-74
2023/10/17 00:46:49;;;;;;;10.85;5.15;;;;;;;;;;5117554;28;20032;-74
2023/10/17 00:49:15;;;;;;;7.30;5.10;;;;;;;;;;5098851;28;20024;-74
2023/10/17 00:51:41;;;;;;;6.50;5.38;;;;;;;;;;5117271;28;20108;-74
2023/10/17 00:54:07;;;;;;;8.45;5.38;;;;;;;;;;5098723;28;20055;-74
2023/10/17 00:56:37;;;;;;;9.65;5.43;;;;;;;;;;5098775;28;20026;-74
2023/10/17 00:59:07;;;;;;;7.95;4.97;;;;;;;;;;5117111;28;20040;-73
2023/10/17 01:01:33;;;;;;;5.43;4.60;;;;;;;;;;5117534;28;20473;-73
2023/10/17 01:03:59;;;;;;;5.82;4.35;;;;;;;;;;5098600;28;20032;-74
2023/10/17 01:08:50;;;;;;;8.05;4.65;;;;;;;;;;5098671;28;20080;-74
2023/10/17 01:11:22;;;;;;;8.38;4.40;;;;;;;;;;5117380;28;20110;-74
2023/10/17 01:13:52;;;;;;;6.80;4.85;;;;;;;;;;5116930;28;20024;-74
2023/10/17 01:16:18;;;;;;;7.93;4.90;;;;;;;;;;5099302;28;20073;-74
2023/10/17 01:18:44;;;;;;;8.18;6.15;;;;;;;;;;5116744;28;20423;-74
2023/10/17 01:21:21;;;;;;;10.98;7.35;;;;;;;;;;5115943;28;20118;-75
2023/10/17 01:23:51;;;;;;;10.10;6.05;;;;;;;;;;5098263;28;20063;-75
2023/10/17 01:26:20;;;;;;;8.85;5.60;;;;;;;;;;5116580;28;20032;-75
2023/10/17 01:28:47;;;;;;;9.88;6.25;;;;;;;;;;5098140;28;20034;-75
2023/10/17 01:31:14;;;;;;;9.27;5.95;;;;;;;;;;5098773;28;20113;-76
2023/10/17 01:33:43;;;;;;;8.73;5.63;;;;;;;;;;5098438;28;20032;-76
2023/10/17 01:36:13;;;;;;;6.05;5.22;;;;;;;;;;5097972;28;20489;-73
2023/10/17 01:38:38;;;;;;;9.80;6.40;;;;;;;;;;5098251;28;20065;-73
2023/10/17 01:41:05;;;;;;;8.95;5.78;;;;;;;;;;5116166;28;20419;-73
2023/10/17 01:43:37;;;;;;;7.13;5.53;;;;;;;;;;5116730;28;20058;-73
2023/10/17 01:46:05;;;;;;;7.80;5.90;;;;;;;;;;5116159;28;20036;-74
2023/10/17 01:48:31;;;;;;;6.28;5.47;;;;;;;;;;5098564;28;20088;-73
2023/10/17 01:50:56;;;;;;;9.68;5.75;;;;;;;;;;5098257;28;20474;-73
2023/10/17 01:53:22;;;;;;;10.80;6.07;;;;;;;;;;5097622;28;20461;-73
2023/10/17 01:55:52;;;;;;;8.95;6.30;;;;;;;;;;5097572;28;20020;-73
2023/10/17 01:58:18;;;;;;;7.75;5.88;;;;;;;;;;5097532;28;20473;-73
2023/10/17 02:00:44;;;;;;;10.73;6.53;;;;;;;;;;5080404;28;20385;-73
2023/10/17 02:03:12;;;;;;;11.25;6.90;;;;;;;;;;5115506;28;20028;-75
2023/10/17 02:05:38;;;;;;;9.20;6.88;;;;;;;;;;5097594;28;20032;-75
2023/10/17 02:08:05;;;;;;;10.40;6.65;;;;;;;;;;5115582;28;20076;-75
2023/10/17 02:10:30;;;;;;;14.45;8.05;;;;;;;;;;5097455;28;20043;-76
2023/10/17 02:12:56;;;;;;;14.35;8.05;;;;;;;;;;5097324;28;20028;-72
2023/10/17 02:15:24;;;;;;;18.08;12.60;;;;;;;;;;5115511;28;20161;-75
2023/10/17 02:17:51;;;;;;;31.00;18.10;;;;;;;;;;5097415;28;20076;-75
2023/10/17 02:20:34;;;;;;;22.02;12.50;;;;;;;;;;5097902;28;20434;-75
2023/10/17 02:23:19;;;;;;;60.28;24.75;;;;;;;;;;5123739;22;20059;-73
2023/10/17 02:26:15;;;;;;;28.13;16.10;;;;;;;;;;5131256;22;20387;-75
2023/10/17 02:28:47;;;;;;;17.88;12.68;;;;;;;;;;5115572;28;20492;-76
2023/10/17 02:31:16;;;;;;;24.65;16.65;;;;;;;;;;5097016;28;20053;-77
2023/10/17 02:33:42;;;;;;;11.13;8.60;;;;;;;;;;5096069;28;20039;-77
2023/10/17 02:36:12;;;;;;;15.95;12.40;;;;;;;;;;5079990;28;20090;-75
2023/10/17 02:38:37;;;;;;;13.88;9.73;;;;;;;;;;5096900;28;20467;-77
2023/10/17 02:41:06;;;;;;;15.77;10.93;;;;;;;;;;5096799;28;20481;-77
2023/10/17 02:43:36;;;;;;;52.15;20.90;;;;;;;;;;5096760;28;20035;-77
2023/10/17 02:46:04;;;;;;;37.30;15.25;;;;;;;;;;5096689;28;20542;-74
2023/10/17 02:48:30;;;;;;;34.90;15.35;;;;;;;;;;5114875;28;20118;-74
2023/10/17 02:51:02;;;;;;;35.00;16.08;;;;;;;;;;5115257;28;20027;-74
2023/10/17 02:53:32;;;;;;;18.95;12.20;;;;;;;;;;5115301;28;20084;-73
2023/10/17 02:55:58;;;;;;;27.85;16.30;;;;;;;;;;5115293;28;20055;-73
2023/10/17 02:58:23;;;;;;;51.28;28.08;;;;;;;;;;5115180;28;20054;-73
2023/10/17 03:00:50;;;;;;;37.30;21.88;;;;;;;;;;5096800;28;20070;-74
2023/10/17 03:03:18;;;;;;;16.45;11.05;;;;;;;;;;5079463;28;20139;-77
2023/10/17 03:05:50;;;;;;;9.93;7.63;;;;;;;;;;5096272;28;20042;-77
2023/10/17 03:08:17;;;;;;;17.08;10.60;;;;;;;;;;5115068;28;20049;-76
2023/10/17 03:10:43;;;;;;;24.20;14.38;;;;;;;;;;5096256;28;20118;-75
2023/10/17 03:15:48;;;;;;;29.40;18.50;;;;;;;;;;5096181;28;20031;-74
2023/10/17 03:18:16;;;;;;;28.42;19.48;;;;;;;;;;5096137;28;20538;-74
2023/10/17 03:20:50;;;;;;;19.85;12.45;;;;;;;;;;5096101;28;20020;-74
2023/10/17 03:23:28;;;;;;;15.90;11.50;;;;;;;;;;5079741;28;20127;-74
2023/10/17 03:26:00;;;;;;;13.95;10.70;;;;;;;;;;5096022;28;20039;-74
2023/10/17 03:28:27;;;;;;;20.45;13.10;;;;;;;;;;5095920;28;20027;-74
2023/10/17 03:30:53;;;;;;;19.13;12.68;;;;;;;;;;5095960;28;20485;-75
2023/10/17 03:33:29;;;;;;;21.65;12.77;;;;;;;;;;5114165;28;20039;-75
2023/10/17 03:38:26;;;;;;;22.98;13.98;;;;;;;;;;5095883;28;20401;-75
2023/10/17 03:41:01;;;;;;;15.52;8.75;;;;;;;;;;5096254;28;20030;-75
2023/10/17 03:43:29;;;;;;;15.70;10.18;;;;;;;;;;5095762;28;20035;-75
2023/10/17 03:46:05;;;;;;;79.65;22.17;;;;;;;;;;5095571;28;20030;-71
2023/10/17 03:48:32;;;;;;;26.05;13.85;;;;;;;;;;5114600;28;20072;-71
2023/10/17 03:53:36;;;;;;;22.35;15.98;;;;;;;;;;5113635;28;20440;-70
2023/10/17 03:56:02;;;;;;;35.13;17.65;;;;;;;;;;5113658;28;20038;-71
2023/10/17 04:00:55;;;;;;;41.58;18.95;;;;;;;;;;5113920;28;20114;-74
2023/10/17 04:03:21;;;;;;;40.45;19.27;;;;;;;;;;5095596;28;20529;-74
2023/10/17 04:05:49;;;;;;;73.93;24.55;;;;;;;;;;5114021;28;20059;-74
2023/10/17 04:08:17;;;;;;;59.20;22.85;;;;;;;;;;5113882;28;20016;-75
2023/10/17 04:10:49;;;;;;;73.03;24.38;;;;;;;;;;5113941;28;20051;-74
2023/10/17 04:13:34;;;;;;;74.70;23.95;;;;;;;;;;5113762;28;20110;-73
2023/10/17 04:16:00;;;;;;;86.07;24.92;;;;;;;;;;5114148;28;20039;-73
2023/10/17 04:18:25;;;;;;;33.92;14.82;;;;;;;;;;5095383;28;20030;-73
2023/10/17 04:20:58;;;;;;;16.95;9.82;;;;;;;;;;5113928;28;20362;-72
2023/10/17 04:23:27;;;;;;;14.30;9.10;;;;;;;;;;5095516;28;20074;-74
2023/10/17 04:25:56;;;;;;;15.10;9.00;;;;;;;;;;5113661;28;20078;-73
2023/10/17 04:28:26;;;;;;;18.63;9.60;;;;;;;;;;5113465;28;20024;-72
2023/10/17 04:30:56;;;;;;;17.27;9.55;;;;;;;;;;5095568;28;20115;-73
2023/10/17 04:33:22;;;;;;;20.25;11.60;;;;;;;;;;5113037;28;20054;-72
2023/10/17 04:35:55;;;;;;;17.50;11.25;;;;;;;;;;5079014;28;20028;-72
2023/10/17 04:38:27;;;;;;;24.48;14.07;;;;;;;;;;5114082;28;20031;-72
2023/10/17 04:41:12;;;;;;;24.83;14.90;;;;;;;;;;5114292;28;20366;-70
2023/10/17 04:43:55;;;;;;;22.08;15.48;;;;;;;;;;5113907;28;20441;-72
2023/10/17 04:46:29;;;;;;;24.40;17.80;;;;;;;;;;5095961;28;20377;-71
2023/10/17 04:49:04;;;;;;;28.88;16.90;;;;;;;;;;5113783;28;20362;-71
2023/10/17 04:51:31;;;;;;;30.13;16.42;;;;;;;;;;5113857;28;20042;-73
2023/10/17 04:54:22;;;;;;;29.88;16.92;;;;;;;;;;5094954;28;20028;-64
2023/10/17 06:18:49;;;;;;;55.80;26.10;;;;;;;;;;5093680;28;20531;-64
2023/10/17 06:26:59;;;;;;;62.28;33.00;;;;;;;;;;5044743;28;20099;-65
2023/10/17 06:34:33;;;;;;;40.58;22.70;;;;;;;;;;5072696;28;20547;-65
2023/10/17 06:36:59;;;;;;;42.13;24.17;;;;;;;;;;5072581;28;20029;-65
2023/10/17 06:39:36;;;;;;;51.67;26.38;;;;;;;;;;5054820;28;20494;-65
2023/10/17 06:44:53;;;;;;;46.33;25.05;;;;;;;;;;5071137;28;20113;-65
2023/10/17 06:47:22;;;;;;;52.35;28.88;;;;;;;;;;5038457;28;20058;-65
2023/10/17 06:53:15;;;;;;;55.50;28.88;;;;;;;;;;5074387;28;20039;-65
2023/10/17 06:55:21;;;;;;;54.63;29.05;;;;;;;;;;5071048;28;20119;-65
2023/10/17 06:57:55;;;;;;;51.97;27.13;;;;;;;;;;5056598;28;20016;-65
2023/10/17 07:00:25;;;;;;;46.20;24.95;;;;;;;;;;5056515;28;20032;-65
2023/10/17 07:02:56;;;;;;;37.90;20.98;;;;;;;;;;5073054;22;20067;-65
2023/10/17 07:05:22;;;;;;;38.50;21.95;;;;;;;;;;5088470;22;20409;-71
2023/10/17 07:07:52;;;;;;;43.55;22.92;;;;;;;;;;5094235;28;20024;-71
2023/10/17 07:15:36;;;;;;;32.05;19.50;;;;;;;;;;5140170;22;20835;-71
2023/10/17 07:21:15;;;;;;;26.00;16.45;;;;;;;;;;5115046;28;20031;-71
2023/10/17 07:23:32;;;;;;;23.77;13.35;;;;;;;;;;5096023;28;20050;-71
2023/10/17 07:26:01;;;;;;;19.55;13.07;;;;;;;;;;5114300;28;20039;-71
2023/10/17 07:28:28;;;;;;;19.65;12.88;;;;;;;;;;5114290;28;20116;-73
2023/10/17 07:31:00;;;;;;;23.15;13.50;;;;;;;;;;5114141;28;20474;-71
2023/10/17 07:33:31;;;;;;;21.15;14.10;;;;;;;;;;5095941;28;20035;-71
2023/10/17 07:35:57;;;;;;;21.10;13.18;;;;;;;;;;5114308;28;20427;-71
2023/10/17 07:38:27;;;;;;;19.65;13.68;;;;;;;;;;5114112;28;20481;-71
2023/10/17 07:40:59;;;;;;;20.60;13.77;;;;;;;;;;5095819;28;20024;-72
2023/10/17 07:43:30;;;;;;;20.17;13.10;;;;;;;;;;5114286;28;20028;-72
2023/10/17 07:45:56;;;;;;;19.92;13.60;;;;;;;;;;5095790;28;20491;-71
2023/10/17 07:48:25;;;;;;;23.33;14.45;;;;;;;;;;5114007;28;20107;-72
2023/10/17 07:50:51;;;;;;;23.45;14.90;;;;;;;;;;5095822;28;20069;-72
2023/10/17 07:53:20;;;;;;;21.30;14.15;;;;;;;;;;5078983;28;20135;-72
2023/10/17 07:55:48;;;;;;;20.33;14.05;;;;;;;;;;5114307;28;20032;-71
2023/10/17 07:58:17;;;;;;;19.80;13.85;;;;;;;;;;5114269;28;20042;-71
2023/10/17 08:00:48;;;;;;;19.20;12.02;;;;;;;;;;5114269;28;20020;-72
2023/10/17 08:03:19;;;;;;;19.08;12.70;;;;;;;;;;5095647;28;20040;-71
2023/10/17 08:05:45;;;;;;;24.42;15.20;;;;;;;;;;5114212;28;20028;-72
2023/10/17 08:08:14;;;;;;;19.17;12.10;;;;;;;;;;5112988;28;20019;-72
2023/10/17 08:10:45;;;;;;;19.25;13.88;;;;;;;;;;5113642;28;20366;-72
2023/10/17 08:13:11;;;;;;;;;;;;;;;;;;5114352;28;20028;-72
2023/10/17 08:18:14;;;;;;;17.52;12.07;;;;;;;;;;5114286;28;20028;-72
2023/10/17 08:23:27;;;;;;;15.80;10.85;;;;;;;;;;5113643;28;20031;-72
2023/10/17 08:26:03;;;;;;;17.25;10.48;;;;;;;;;;5113626;28;20034;-72
2023/10/17 08:36:41;;;;;;;7.07;5.20;;;;;;;;;;5117439;28;19912;-71
2023/10/17 08:44:46;;;;;;;8.98;5.95;;;;;;;;;;5117601;28;20059;-65
2023/10/17 08:47:18;;;;;;;8.07;5.45;;;;;;;;;;5098836;28;20016;-65
2023/10/17 08:49:44;;;;;;;6.93;4.97;;;;;;;;;;5117141;28;20035;-65
2023/10/17 08:52:22;;;;;;;9.52;5.00;;;;;;;;;;5117187;28;20019;-64
2023/10/17 08:54:48;;;;;;;7.30;5.00;;;;;;;;;;5098801;28;20055;-65
2023/10/17 08:57:13;;;;;;;7.85;5.05;;;;;;;;;;5116978;28;20023;-65
2023/10/17 09:04:43;;;;;;;7.63;4.57;;;;;;;;;;5116896;28;20032;-65
2023/10/17 09:07:31;;;;;;;7.53;4.63;;;;;;;;;;5116880;28;20028;-65
2023/10/17 09:09:55;;;;;;;6.55;4.07;;;;;;;;;;5116859;28;20039;-73
2023/10/17 09:12:24;;;;;;;7.60;4.50;;;;;;;;;;5117457;28;20027;-71
2023/10/17 09:14:52;;;;;;;7.00;4.15;;;;;;;;;;5117214;28;20038;-71
2023/10/17 09:19:52;;;;;;;8.25;3.65;;;;;;;;;;5116939;28;20034;-72
2023/10/17 09:22:40;;;;;;;5.30;3.78;;;;;;;;;;5116992;28;20098;-71
2023/10/17 09:25:22;;;;;;;6.72;3.97;;;;;;;;;;5116909;28;20039;-71
2023/10/17 09:27:56;;;;;;;5.60;3.70;;;;;;;;;;5095117;28;20028;-64
2023/10/17 09:30:26;;;;;;;4.82;3.30;;;;;;;;;;5097963;28;20428;-64
2023/10/17 09:32:52;;;;;;;4.65;3.42;;;;;;;;;;5098287;28;20090;-64
2023/10/17 09:35:27;;;;;;;5.18;3.28;;;;;;;;;;5116180;28;20103;-64
2023/10/17 09:38:26;;;;;;;5.53;3.88;;;;;;;;;;5127014;22;20058;-71
2023/10/17 09:41:02;;;;;;;4.45;3.25;;;;;;;;;;5031926;28;20037;-64
2023/10/17 09:43:29;;;;;;;5.28;2.85;;;;;;;;;;5034010;28;20075;-64
2023/10/17 09:45:59;;;;;;;8.73;3.63;;;;;;;;;;5033763;28;20051;-65
2023/10/17 09:48:35;;;;;;;6.05;3.80;;;;;;;;;;5033745;28;20040;-64
2023/10/17 09:51:01;;;;;;;5.85;3.88;;;;;;;;;;5033683;28;20041;-64
2023/10/17 09:53:29;;;;;;;4.05;3.00;;;;;;;;;;5033823;28;20036;-65
2023/10/17 09:55:56;;;;;;;3.70;2.70;;;;;;;;;;5033747;28;20072;-64
2023/10/17 09:58:41;;;;;;;4.20;2.58;;;;;;;;;;5033540;28;20117;-65
2023/10/17 10:01:13;;;;;;;3.85;2.47;;;;;;;;;;5032892;28;20037;-71
2023/10/17 10:03:47;;;;;;;3.83;2.55;;;;;;;;;;5015994;28;20491;-71
2023/10/17 10:06:21;;;;;;;4.18;2.10;;;;;;;;;;5000104;28;20384;-71
2023/10/17 10:08:47;;;;;;;2.05;1.80;;;;;;;;;;5034424;28;20029;-71
2023/10/17 10:11:12;;;;;;;4.00;2.00;;;;;;;;;;5035007;28;20071;-71
2023/10/17 10:13:57;;;;;;;2.35;1.60;;;;;;;;;;5017347;28;20034;-72
2023/10/17 10:16:43;;;;;;;1.52;1.42;;;;;;;;;;5034743;28;20029;-72
2023/10/17 10:19:09;;;;;;;4.95;1.88;;;;;;;;;;5000362;28;20510;-72
2023/10/17 10:21:54;;;;;;;2.13;1.70;;;;;;;;;;5034899;28;20025;-72
2023/10/17 10:24:23;;;;;;;2.60;1.73;;;;;;;;;;5017059;28;20472;-71
2023/10/17 10:27:09;;;;;;;2.60;1.30;;;;;;;;;;5034896;28;20411;-71
2023/10/17 10:29:34;;;;;;;2.60;1.60;;;;;;;;;;5034663;28;20021;-72
2023/10/17 10:32:05;;;;;;;3.63;2.35;;;;;;;;;;5034453;28;20538;-72
2023/10/17 10:34:35;;;;;;;2.88;2.25;;;;;;;;;;5033679;28;20095;-72
2023/10/17 10:37:07;;;;;;;4.50;2.50;;;;;;;;;;5034281;28;20372;-72
2023/10/17 10:39:37;;;;;;;5.70;2.35;;;;;;;;;;5013186;28;20563;-72
2023/10/17 10:42:07;;;;;;;3.33;2.42;;;;;;;;;;5014210;28;20072;-72
2023/10/17 10:44:41;;;;;;;3.15;2.20;;;;;;;;;;5013030;28;20032;-72
2023/10/17 10:47:07;;;;;;;3.47;2.60;;;;;;;;;;5014885;28;20109;-72
2023/10/17 10:49:33;;;;;;;4.95;2.50;;;;;;;;;;5014961;28;20117;-72
2023/10/17 10:51:58;;;;;;;5.63;2.58;;;;;;;;;;5014893;28;20057;-71
2023/10/17 10:54:27;;;;;;;3.63;2.50;;;;;;;;;;5012627;28;20038;-71
2023/10/17 11:00:40;;;;;;;2.63;1.35;;;;;;;;;;5014776;28;20102;-72
2023/10/17 11:06:41;;;;;;;2.47;1.80;;;;;;;;;;5014438;28;20056;-72
2023/10/17 11:19:55;;;;;;;2.58;1.48;;;;;;;;;;5012522;28;20068;-71
2023/10/17 11:22:54;;;;;;;2.38;2.03;;;;;;;;;;5012414;28;20041;-71
2023/10/17 11:25:27;;;;;;;3.28;1.80;;;;;;;;;;5091870;22;20053;-71
2023/10/17 11:27:56;;;;;;;3.17;1.63;;;;;;;;;;5084745;23;20135;-64
2023/10/17 11:30:35;;;;;;;6.82;1.95;;;;;;;;;;5072465;28;20416;-64
2023/10/17 11:33:04;;;;;;;2.17;1.35;;;;;;;;;;5072451;28;20062;-64
2023/10/17 11:35:30;;;;;;;2.97;1.88;;;;;;;;;;5074012;28;20370;-64
2023/10/17 11:37:59;;;;;;;3.03;1.48;;;;;;;;;;5073683;28;20048;-65
2023/10/17 11:40:48;;;;;;;2.33;1.80;;;;;;;;;;5073943;28;20021;-64
2023/10/17 11:43:15;;;;;;;2.53;1.73;;;;;;;;;;5072963;28;20029;-65
2023/10/17 11:45:41;;;;;;;5.03;1.75;;;;;;;;;;5073888;28;20032;-64
2023/10/17 11:48:44;;;;;;;2.92;2.00;;;;;;;;;;5072201;28;20605;-64
2023/10/17 11:51:13;;;;;;;2.83;1.55;;;;;;;;;;5072210;28;20060;-64
2023/10/17 11:54:03;;;;;;;2.50;1.70;;;;;;;;;;5073259;28;20490;-65
2023/10/17 11:56:29;;;;;;;3.67;1.92;;;;;;;;;;5072096;28;20375;-64
2023/10/17 11:58:56;;;;;;;3.47;1.50;;;;;;;;;;5072029;28;20064;-64
2023/10/17 12:04:09;;;;;;;2.22;1.65;;;;;;;;;;5032056;28;20404;-71
2023/10/17 12:06:35;;;;;;;2.65;1.48;;;;;;;;;;5019314;28;20029;-71
2023/10/17 12:11:48;;;;;;;5.00;2.08;;;;;;;;;;5036269;28;20026;-65
2023/10/17 12:14:23;;;;;;;3.05;1.83;;;;;;;;;;5035420;28;20041;-65
2023/10/17 12:16:53;;;;;;;2.95;1.80;;;;;;;;;;5034276;28;20071;-64
2023/10/17 12:19:21;;;;;;;4.90;1.75;;;;;;;;;;5018249;28;20042;-64
2023/10/17 12:21:50;;;;;;;3.33;1.80;;;;;;;;;;5036586;28;20017;-65
2023/10/17 12:24:19;;;;;;;2.35;1.80;;;;;;;;;;5036542;28;20037;-65
2023/10/17 12:26:45;;;;;;;2.33;1.47;;;;;;;;;;5035650;28;20495;-65
2023/10/17 12:29:12;;;;;;;2.78;1.83;;;;;;;;;;5019360;28;20028;-64
2023/10/17 12:31:39;;;;;;;3.08;2.00;;;;;;;;;;5037203;28;20030;-65
2023/10/17 12:34:07;;;;;;;2.20;2.00;;;;;;;;;;5019678;28;20038;-65
2023/10/17 12:36:35;;;;;;;4.75;2.05;;;;;;;;;;5035760;28;20029;-65
2023/10/17 12:39:02;;;;;;;4.00;2.05;;;;;;;;;;5036731;28;20466;-64
2023/10/17 12:41:27;;;;;;;3.80;1.83;;;;;;;;;;5036870;28;20029;-64
2023/10/17 12:43:53;;;;;;;3.83;2.13;;;;;;;;;;5036700;28;20041;-64
2023/10/17 12:46:18;;;;;;;2.85;1.83;;;;;;;;;;5035754;28;20099;-65
2023/10/17 12:48:43;;;;;;;3.22;1.88;;;;;;;;;;5035338;28;20438;-64
2023/10/17 12:51:12;;;;;;;3.70;1.88;;;;;;;;;;5036662;28;20107;-64
2023/10/17 12:53:37;;;;;;;2.50;1.90;;;;;;;;;;5036848;28;20033;-64
2023/10/17 12:56:05;;;;;;;41.30;20.33;;;;;;;;;;5036588;28;20079;-64
2023/10/17 12:58:32;;;;;;;328.25;173.80;;;;;;;;;;5036569;28;20444;-64
2023/10/17 13:01:00;;;;;;;34.55;20.80;;;;;;;;;;5036920;28;20045;-65
2023/10/17 13:03:27;;;;;;;3.95;2.30;;;;;;;;;;5021297;28;20500;-64
2023/10/17 13:05:52;;;;;;;3.88;1.90;;;;;;;;;;5015593;28;20059;-64
2023/10/17 13:08:18;;;;;;;2.97;1.60;;;;;;;;;;5013840;28;20113;-64
2023/10/17 13:10:43;;;;;;;3.72;2.05;;;;;;;;;;5014165;28;20029;-64
2023/10/17 13:13:10;;;;;;;2.35;1.60;;;;;;;;;;5014834;28;20040;-64
2023/10/17 13:15:36;;;;;;;3.72;2.40;;;;;;;;;;5014379;28;20109;-65
2023/10/17 13:18:03;;;;;;;4.15;2.75;;;;;;;;;;5013460;28;20187;-65
2023/10/17 13:20:29;;;;;;;9.52;4.25;;;;;;;;;;5029634;28;20088;-64
2023/10/17 13:23:03;;;;;;;57.10;36.22;;;;;;;;;;5013506;28;20042;-64
2023/10/17 13:25:35;;;;;;;94.53;65.57;;;;;;;;;;5031087;28;20483;-64
2023/10/17 13:28:02;;;;;;;9.57;6.32;;;;;;;;;;5016510;28;20148;-64
2023/10/17 13:30:28;;;;;;;10.68;6.32;;;;;;;;;;5016137;28;20522;-64
2023/10/17 13:32:53;;;;;;;9.93;6.35;;;;;;;;;;5014736;28;20109;-64
2023/10/17 13:35:20;;;;;;;4.65;2.70;;;;;;;;;;5015891;28;20427;-64
2023/10/17 13:37:51;;;;;;;9.57;3.08;;;;;;;;;;5016035;28;20101;-64
2023/10/17 13:40:19;;;;;;;3.70;2.13;;;;;;;;;;5016545;28;20054;-64
2023/10/17 13:42:46;;;;;;;6.22;2.63;;;;;;;;;;5016191;28;20041;-64
2023/10/17 13:45:13;;;;;;;6.38;3.10;;;;;;;;;;5016201;28;20045;-67
2023/10/17 13:47:42;;;;;;;5.05;3.90;;;;;;;;;;5014928;28;20030;-67
2023/10/17 13:50:13;;;;;;;5.05;2.72;;;;;;;;;;5016141;28;20046;-67
2023/10/17 13:52:39;;;;;;;;;;;;;;;;;;5015340;28;20372;-64
2023/10/17 13:55:09;;;;;;;11.48;4.90;;;;;;;;;;5015609;28;19976;-71
2023/10/17 13:57:36;;;;;;;35.78;8.98;;;;;;;;;;5015422;28;20026;-70
2023/10/17 14:00:05;;;;;;;26.25;7.20;;;;;;;;;;5015550;28;20084;-70
2023/10/17 14:02:31;;;;;;;9.57;3.90;;;;;;;;;;5015500;28;20048;-69
2023/10/17 14:04:57;;;;;;;7.82;3.60;;;;;;;;;;5015628;28;20018;-70
2023/10/17 14:07:22;;;;;;;11.82;6.03;;;;;;;;;;5015529;28;20026;-70
2023/10/17 14:09:50;;;;;;;11.98;5.80;;;;;;;;;;5030734;28;20026;-70
2023/10/17 14:12:16;;;;;;;16.17;7.32;;;;;;;;;;5015626;28;20101;-70
2023/10/17 14:14:41;;;;;;;14.48;7.97;;;;;;;;;;5015314;28;20477;-69
2023/10/17 14:17:06;;;;;;;23.45;9.23;;;;;;;;;;5015628;28;20476;-70
2023/10/17 14:19:45;;;;;;;20.13;9.48;;;;;;;;;;5014125;28;20021;-69
2023/10/17 14:28:31;;;;;;;9.40;4.75;;;;;;;;;;5081379;22;20055;-69
2023/10/17 14:30:58;;;;;;;4.82;3.42;;;;;;;;;;5074014;28;20028;-69
2023/10/17 14:33:23;;;;;;;8.43;4.35;;;;;;;;;;5055522;28;20029;-69
2023/10/17 14:35:49;;;;;;;3.83;2.92;;;;;;;;;;5056295;28;20043;-69
2023/10/17 14:38:16;;;;;;;6.20;2.83;;;;;;;;;;5056501;28;20505;-69
2023/10/17 14:40:42;;;;;;;4.20;3.40;;;;;;;;;;5073604;28;20037;-70
2023/10/17 14:43:09;;;;;;;8.38;4.82;;;;;;;;;;5073015;28;20036;-70
2023/10/17 14:45:38;;;;;;;11.32;5.75;;;;;;;;;;5073719;28;20029;-69
2023/10/17 14:48:05;;;;;;;22.75;9.35;;;;;;;;;;5074108;28;20020;-69
2023/10/17 14:50:33;;;;;;;53.97;22.52;;;;;;;;;;5073774;28;20554;-69
2023/10/17 14:52:59;;;;;;;64.90;28.63;;;;;;;;;;5072331;28;20099;-69
2023/10/17 14:55:26;;;;;;;184.43;88.20;;;;;;;;;;5073521;28;20633;-69
2023/10/17 14:57:52;;;;;;;68.65;34.65;;;;;;;;;;5071933;28;20113;-69
2023/10/17 15:00:18;;;;;;;135.98;61.75;;;;;;;;;;5072535;28;20036;-69
2023/10/17 15:02:44;;;;;;;125.20;51.58;;;;;;;;;;5072700;28;20028;-69
2023/10/17 15:05:11;;;;;;;88.93;35.45;;;;;;;;;;5071412;28;20106;-69
2023/10/17 15:07:38;;;;;;;102.28;51.30;;;;;;;;;;5072976;28;20107;-69
2023/10/17 15:10:11;;;;;;;22.90;12.70;;;;;;;;;;5073440;28;20491;-69
2023/10/17 15:12:45;;;;;;;62.00;30.40;;;;;;;;;;5071800;28;20036;-70
2023/10/17 15:15:10;;;;;;;108.47;51.35;;;;;;;;;;5071997;28;20035;-70
2023/10/17 15:17:37;;;;;;;98.30;49.60;;;;;;;;;;5072523;28;20032;-70
2023/10/17 15:20:02;;;;;;;43.22;23.55;;;;;;;;;;5072417;28;20112;-70
2023/10/17 15:22:28;;;;;;;19.00;12.68;;;;;;;;;;5072624;28;20423;-70
2023/10/17 15:24:53;;;;;;;10.60;8.13;;;;;;;;;;5074089;28;20029;-70
2023/10/17 15:27:19;;;;;;;12.93;9.82;;;;;;;;;;5072358;28;20044;-70
2023/10/17 15:29:44;;;;;;;28.17;15.05;;;;;;;;;;5072582;28;20078;-70
2023/10/17 15:32:11;;;;;;;32.15;20.67;;;;;;;;;;5072865;28;20036;-70
2023/10/17 15:34:38;;;;;;;19.25;12.38;;;;;;;;;;5073814;28;20036;-70
2023/10/17 15:37:03;;;;;;;9.93;7.18;;;;;;;;;;5073704;28;20044;-70
2023/10/17 15:39:31;;;;;;;12.38;8.48;;;;;;;;;;5072429;28;20032;-70
2023/10/17 15:41:57;;;;;;;23.45;13.05;;;;;;;;;;5072337;28;20031;-70
2023/10/17 15:44:24;;;;;;;32.60;16.27;;;;;;;;;;5073329;28;20028;-70
2023/10/17 15:46:49;;;;;;;74.78;28.83;;;;;;;;;;5073154;28;20436;-70
2023/10/17 15:49:16;;;;;;;129.13;43.25;;;;;;;;;;5073438;28;20028;-70
2023/10/17 15:51:41;;;;;;;158.90;54.42;;;;;;;;;;5071933;28;20032;-70
2023/10/17 15:54:09;;;;;;;137.60;52.45;;;;;;;;;;5073166;28;20032;-71
2023/10/17 15:56:34;;;;;;;131.23;54.17;;;;;;;;;;5071837;28;20352;-71
2023/10/17 15:59:01;;;;;;;83.95;35.28;;;;;;;;;;5072250;28;20086;-71
2023/10/17 16:01:26;;;;;;;139.65;60.85;;;;;;;;;;5072396;28;20033;-70
2023/10/17 16:03:51;;;;;;;51.42;26.42;;;;;;;;;;5073220;28;20032;-70
2023/10/17 16:06:18;;;;;;;54.88;29.88;;;;;;;;;;5071650;28;20052;-73
2023/10/17 16:08:45;;;;;;;46.20;24.05;;;;;;;;;;5072259;28;20028;-70
2023/10/17 16:11:12;;;;;;;50.13;25.92;;;;;;;;;;5073014;28;20578;-65
2023/10/17 16:13:38;;;;;;;73.70;30.83;;;;;;;;;;5072915;28;20486;-65
2023/10/17 16:16:06;;;;;;;56.65;27.08;;;;;;;;;;5073110;28;20024;-64
2023/10/17 16:18:32;;;;;;;53.67;26.35;;;;;;;;;;5055453;28;20067;-64
2023/10/17 16:20:58;;;;;;;53.50;24.60;;;;;;;;;;5054900;28;20064;-64
2023/10/17 16:23:23;;;;;;;63.80;27.02;;;;;;;;;;5072868;28;20036;-64
2023/10/17 16:25:49;;;;;;;59.28;26.25;;;;;;;;;;5073441;28;20040;-64
2023/10/17 16:28:16;;;;;;;42.50;22.35;;;;;;;;;;5072598;28;20131;-65
2023/10/17 16:30:41;;;;;;;45.72;23.58;;;;;;;;;;5071414;28;20029;-64
2023/10/17 16:33:08;;;;;;;46.00;25.38;;;;;;;;;;5071763;28;20040;-70
2023/10/17 16:35:36;;;;;;;638.92;287.45;;;;;;;;;;5072485;28;20017;-64
2023/10/17 16:38:01;;;;;;;192.18;85.32;;;;;;;;;;5072539;28;20028;-70
2023/10/17 16:40:27;;;;;;;147.40;72.55;;;;;;;;;;5072601;28;20387;-70
2023/10/17 16:42:52;;;;;;;153.10;73.25;;;;;;;;;;5072668;28;20043;-70
2023/10/17 16:45:18;;;;;;;127.65;69.00;;;;;;;;;;5073286;28;20449;-71
2023/10/17 16:47:44;;;;;;;203.98;112.57;;;;;;;;;;5073254;28;20032;-70
2023/10/17 16:50:12;;;;;;;116.55;66.07;;;;;;;;;;5054711;28;20033;-70
2023/10/17 16:52:37;;;;;;;255.60;129.40;;;;;;;;;;5073918;28;20032;-71
2023/10/17 16:55:03;;;;;;;137.60;81.35;;;;;;;;;;5075415;28;20025;-71
2023/10/17 16:57:28;;;;;;;74.03;56.78;;;;;;;;;;5074179;28;20040;-72
2023/10/17 16:59:54;;;;;;;77.53;51.35;;;;;;;;;;5075736;28;20039;-70
2023/10/17 17:02:21;;;;;;;163.00;98.03;;;;;;;;;;5075986;28;20036;-70
2023/10/17 17:04:47;;;;;;;163.40;101.00;;;;;;;;;;5057107;28;20097;-70
2023/10/17 17:07:12;;;;;;;163.80;93.97;;;;;;;;;;5058027;28;20112;-70
2023/10/17 17:09:38;;;;;;;105.10;59.28;;;;;;;;;;5076810;28;20451;-71
2023/10/17 17:12:05;;;;;;;105.30;61.13;;;;;;;;;;5076793;28;20032;-71
2023/10/17 17:14:30;;;;;;;91.18;57.95;;;;;;;;;;5076629;28;20032;-70
2023/10/17 17:16:57;;;;;;;120.70;63.80;;;;;;;;;;5076740;28;20032;-70
2023/10/17 17:19:22;;;;;;;67.32;38.10;;;;;;;;;;5076432;28;20427;-70
2023/10/17 17:21:48;;;;;;;63.33;35.47;;;;;;;;;;5076074;28;20026;-70
2023/10/17 17:24:16;;;;;;;62.58;35.65;;;;;;;;;;5075757;28;20037;-70
2023/10/17 17:26:42;;;;;;;46.38;28.65;;;;;;;;;;5076504;28;20031;-69
2023/10/17 17:29:08;;;;;;;54.42;31.83;;;;;;;;;;5075496;28;20044;-70
2023/10/17 17:31:34;;;;;;;61.83;31.83;;;;;;;;;;5040276;28;20130;-70
2023/10/17 17:34:00;;;;;;;61.90;40.08;;;;;;;;;;5075217;28;20466;-70
2023/10/17 17:36:27;;;;;;;75.47;49.20;;;;;;;;;;5075497;28;20060;-70
2023/10/17 17:38:53;;;;;;;74.78;45.88;;;;;;;;;;5057536;28;20031;-70
2023/10/17 17:41:20;;;;;;;70.38;40.53;;;;;;;;;;5057243;28;20024;-70